Villa Grove, CO

7:27 AM MDT on September 16, 2014 (GMT -0600)
Monarch Pass | Change Station
CLOSE
Current Station
Airport
Location: Monarch Pass,
Elevation: 12031 ft
Nearby Weather Stations

Elev 12031 ft 38.48 °N, 106.32 °W | Updated 2 minutes ago

Clear
Clear
41 °F
Feels Like 33 °F
N
15
Wind Variable Wind from SW

Today
High -- | Low -- °F
--% Chance of Precip.
Yesterday
High -- | Low -- °F
Precip. -- in
6:47 AM 7:11 PM
Last Quarter, 45% visible
Pressure 30.78 in
Visibility 10.0 miles
Clouds Clear
Windchill 33 °F
Dew Point 32 °F
Humidity 70%
Rainfall 0.00 in
Snow Depth 1 in , 0 in , 11 in
UV 0 out of 12
Pollen 5.00 out of 12
Air Quality Not available.
Flu Activity Not available.
METAR KMYP 161325Z AUTO 23013KT 10SM CLR 05/00 A3078 RMK AO2

More Conditions Fewer Conditions

Pressure 30.78 in
Visibility 10.0 miles
Clouds Clear
Windchill 33 °F
Dew Point 32 °F
Humidity 70%
Rainfall 0.00 in
Snow Depth 1 in , 0 in , 11 in
UV 0 out of 12
Pollen 5.00 out of 12
Air Quality Not available.
Flu Activity Not available.
METAR KMYP 161325Z AUTO 23013KT 10SM CLR 05/00 A3078 RMK AO2

More Conditions Fewer Conditions

10-Day Weather Forecast

Almanac

Astronomy

Sep. 16, 2014 Rise Set
Actual Time 6:47 AM MDT 7:11 PM MDT
Civil Twilight 6:20 AM MDT 7:37 PM MDT
Nautical Twilight 5:49 AM MDT 8:08 PM MDT
Astronomical Twilight 5:17 AM MDT 8:40 PM MDT
Moon 12:02 AM MDT 2:33 PM MDT
Length of Visible Light 13h 16m
Length of Day
12h 23m
Tomorrow will be 2m 27s shorter.
Last Quarter, 45% of the Moon is Illuminated
Today
Last Quarter
Sep 24
New
Oct 1
First Quarter
Oct 8
Full
Oct 15
Last Quarter

Today's Extremes

State Highs State Lows

Community

WunderPhotos

Upload Photos

1,753,759 photos uploaded!

Nearby

Snow Depth

Station Depth Elevation
Sharkstooth 1 in 10720 ft
Dry Lake 0 in 8400 ft
Mccoy Park 11 in 9480 ft
Loveland Basin 7 in 11400 ft
Rabbit Ears 0 in 9400 ft

Earthquake Activity

City Distance Mag. Time & Date
No recent earthquake activity has been reported nearby.
Minimum magnitude displayed is 2.5.

Coastal Water Temperatures

Place Temperature
No Stations Reporting

Nearby Weather Stations